Time;durP1;ratioP1;P1;durP2;ratioP2;P2;SDS_P1;SDS_P2;PMS_P1;PMS_P2;Temp;Humidity;BMP_temperature;BMP_pressure;BME280_temperature;BME280_humidity;BME280_pressure;Samples;Min_cycle;Max_cycle;Signal;HPM_P1;HPM_P2
2022/05/24 00:00:33;;;;;;;3.85;2.13;;;18.20;94.00;;;;;;4951819;29;20083;-73
2022/05/24 00:03:00;;;;;;;5.05;1.63;;;18.10;94.30;;;;;;4953340;28;20050;-74
2022/05/24 00:05:28;;;;;;;4.93;1.92;;;18.20;94.20;;;;;;4951895;29;20078;-73
2022/05/24 00:07:54;;;;;;;4.60;2.03;;;18.10;94.10;;;;;;4953423;28;20054;-74
2022/05/24 00:10:25;;;;;;;4.90;1.85;;;18.10;94.00;;;;;;4954423;28;20110;-74
2022/05/24 00:12:51;;;;;;;4.28;1.70;;;18.00;93.90;;;;;;4954266;29;20042;-74
2022/05/24 00:15:19;;;;;;;2.75;1.63;;;18.10;93.40;;;;;;4984900;28;20034;-74
2022/05/24 00:17:52;;;;;;;1.92;1.42;;;18.10;92.60;;;;;;4992535;28;20022;-72
2022/05/24 00:20:19;;;;;;;3.53;1.80;;;18.00;92.50;;;;;;4976287;28;20049;-74
2022/05/24 00:22:45;;;;;;;5.82;1.90;;;18.10;92.50;;;;;;4974252;28;20027;-74
2022/05/24 00:25:11;;;;;;;3.15;2.08;;;18.00;92.10;;;;;;4978174;28;20547;-73
2022/05/24 00:27:37;;;;;;;2.47;1.70;;;18.00;91.60;;;;;;4977601;28;20023;-74
2022/05/24 00:30:04;;;;;;;2.80;1.63;;;18.00;92.00;;;;;;4990131;28;20034;-71
2022/05/24 00:32:30;;;;;;;4.85;1.38;;;18.00;91.90;;;;;;4988476;28;20042;-74
2022/05/24 00:34:55;;;;;;;3.30;1.65;;;18.10;91.80;;;;;;4995275;28;20041;-73
2022/05/24 00:37:24;;;;;;;5.38;1.70;;;18.10;91.20;;;;;;4994756;28;20029;-73
2022/05/24 00:39:50;;;;;;;3.70;2.05;;;18.10;91.50;;;;;;4994883;28;20061;-74
2022/05/24 00:42:26;;;;;;;3.33;2.05;;;18.10;91.90;;;;;;4994748;28;20041;-74
2022/05/24 00:45:09;;;;;;;4.65;2.10;;;18.10;91.50;;;;;;4994149;28;20061;-74
2022/05/24 00:47:40;;;;;;;5.45;1.50;;;18.00;90.90;;;;;;5009349;28;20042;-75
2022/05/24 00:50:20;;;;;;;3.15;1.92;;;17.90;90.90;;;;;;5028855;28;20410;-75
2022/05/24 00:52:51;;;;;;;4.18;2.05;;;17.90;90.80;;;;;;5033155;28;20021;-75
2022/05/24 00:55:22;;;;;;;3.88;2.00;;;17.80;91.50;;;;;;5026283;28;20034;-75
2022/05/24 00:58:23;;;;;;;2.47;1.70;;;17.70;92.70;;;;;;5014020;28;20030;-76
2022/05/24 01:00:50;;;;;;;2.90;1.90;;;17.70;94.00;;;;;;4972588;28;20043;-75
2022/05/24 01:03:16;;;;;;;6.78;2.70;;;17.50;94.70;;;;;;4972763;28;20125;-74
2022/05/24 01:05:43;;;;;;;2.88;1.90;;;17.50;94.70;;;;;;4972867;28;20126;-74
2022/05/24 01:08:10;;;;;;;4.40;2.50;;;17.40;95.10;;;;;;4972836;28;20037;-75
2022/05/24 01:10:44;;;;;;;6.10;2.20;;;17.60;94.80;;;;;;4972382;28;20038;-75
2022/05/24 01:13:14;;;;;;;2.25;1.52;;;17.60;95.00;;;;;;4972792;28;20046;-75
2022/05/24 01:15:43;;;;;;;5.20;1.88;;;17.70;94.60;;;;;;4972699;28;20042;-75
2022/05/24 01:18:11;;;;;;;2.40;1.83;;;17.80;94.10;;;;;;4972418;28;20057;-75
2022/05/24 01:20:42;;;;;;;5.03;1.60;;;17.90;92.50;;;;;;4972676;28;20031;-75
2022/05/24 01:23:16;;;;;;;3.33;1.60;;;18.00;92.10;;;;;;4971761;28;20523;-74
2022/05/24 01:25:51;;;;;;;5.35;1.50;;;18.00;91.80;;;;;;4970623;28;20077;-74
2022/05/24 01:28:25;;;;;;;2.25;1.38;;;18.00;91.40;;;;;;4972033;28;20409;-75
2022/05/24 01:30:52;;;;;;;1.88;1.38;;;18.00;91.10;;;;;;4971752;28;20089;-75
2022/05/24 01:36:10;;;;;;;1.90;1.50;;;18.00;90.40;;;;;;4974493;28;20381;-75
2022/05/24 01:38:41;;;;;;;3.28;1.63;;;18.10;90.30;;;;;;5012993;28;20116;-75
2022/05/24 01:41:08;;;;;;;1.17;0.95;;;18.10;90.00;;;;;;5013093;28;20040;-75
2022/05/24 01:43:37;;;;;;;3.78;1.50;;;18.10;89.50;;;;;;5012885;28;20045;-75
2022/05/24 01:46:08;;;;;;;2.05;1.55;;;18.10;89.90;;;;;;5009924;28;20592;-75
2022/05/24 01:48:46;;;;;;;2.17;1.70;;;18.10;89.80;;;;;;4993601;28;20046;-75
2022/05/24 01:51:17;;;;;;;3.25;1.77;;;18.00;90.50;;;;;;4993712;28;20502;-75
2022/05/24 01:53:48;;;;;;;1.95;1.67;;;18.00;91.00;;;;;;4994148;28;20085;-76
2022/05/24 01:56:29;;;;;;;2.78;1.58;;;18.00;91.30;;;;;;4993426;28;20444;-75
2022/05/24 01:58:57;;;;;;;4.75;2.05;;;18.00;91.50;;;;;;4993726;28;20026;-75
2022/05/24 02:01:47;;;;;;;3.95;1.77;;;18.00;91.20;;;;;;4994117;28;20023;-74
2022/05/24 02:04:13;;;;;;;4.03;1.70;;;18.00;91.30;;;;;;4994128;28;20126;-75
2022/05/24 02:06:39;;;;;;;2.92;1.45;;;18.00;91.30;;;;;;4993581;28;20127;-75
2022/05/24 02:09:07;;;;;;;1.55;1.20;;;17.90;91.80;;;;;;4993649;28;20557;-75
2022/05/24 02:11:34;;;;;;;2.88;1.60;;;17.80;92.40;;;;;;4993713;28;20058;-75
2022/05/24 02:14:04;;;;;;;5.15;1.83;;;17.80;92.90;;;;;;4993729;28;20034;-75
2022/05/24 02:16:33;;;;;;;2.75;1.80;;;17.70;93.90;;;;;;4993351;28;20050;-75
2022/05/24 02:19:02;;;;;;;5.75;1.85;;;17.70;94.00;;;;;;4993793;28;20037;-75
2022/05/24 02:21:28;;;;;;;3.85;1.88;;;17.70;94.40;;;;;;4993115;28;20026;-75
2022/05/24 02:23:54;;;;;;;4.45;1.70;;;17.70;95.00;;;;;;4993264;28;20034;-76
2022/05/24 02:26:22;;;;;;;5.10;1.70;;;17.70;95.70;;;;;;4992929;28;20027;-75
2022/05/24 02:28:53;;;;;;;3.30;1.58;;;17.70;96.30;;;;;;4975975;28;20022;-75
2022/05/24 02:31:22;;;;;;;4.13;1.73;;;17.70;96.30;;;;;;4993453;28;20057;-75
2022/05/24 02:33:48;;;;;;;3.40;1.88;;;17.60;96.80;;;;;;4993091;28;20041;-75
2022/05/24 02:36:15;;;;;;;2.95;1.77;;;17.60;96.70;;;;;;4993195;28;20038;-75
2022/05/24 02:38:41;;;;;;;2.72;1.70;;;17.40;96.90;;;;;;4993639;28;20026;-73
2022/05/24 02:43:53;;;;;;;3.97;1.65;;;17.30;97.40;;;;;;4992693;28;20053;-76
2022/05/24 02:46:19;;;;;;;3.22;2.15;;;17.20;98.20;;;;;;4992966;28;20073;-75
2022/05/24 02:48:45;;;;;;;2.33;1.70;;;17.20;98.30;;;;;;4993331;28;20027;-75
2022/05/24 02:51:14;;;;;;;4.03;2.00;;;17.20;98.10;;;;;;4992737;28;20416;-76
2022/05/24 02:53:43;;;;;;;3.35;1.58;;;17.20;98.40;;;;;;4992138;28;20054;-76
2022/05/24 02:56:09;;;;;;;3.42;1.75;;;17.20;98.40;;;;;;4992630;28;20031;-75
2022/05/24 02:58:36;;;;;;;3.60;2.10;;;17.20;97.60;;;;;;4992520;28;20105;-76
2022/05/24 03:01:04;;;;;;;6.47;1.70;;;17.30;97.80;;;;;;4992496;28;20026;-75
2022/05/24 03:03:30;;;;;;;3.38;1.67;;;17.30;97.40;;;;;;4992029;28;20105;-76
2022/05/24 03:05:56;;;;;;;5.63;1.70;;;17.40;97.60;;;;;;4992105;28;20465;-75
2022/05/24 03:11:09;;;;;;;4.93;1.90;;;17.40;97.80;;;;;;4992135;28;20112;-76
2022/05/24 03:16:20;;;;;;;2.55;1.77;;;17.40;97.70;;;;;;4991717;28;20026;-72
2022/05/24 03:18:45;;;;;;;3.58;1.80;;;17.40;97.80;;;;;;4991793;28;20038;-76
2022/05/24 03:21:12;;;;;;;6.50;1.55;;;17.40;98.00;;;;;;4991832;28;20374;-76
2022/05/24 03:23:38;;;;;;;4.70;1.88;;;17.50;98.10;;;;;;4989963;28;20043;-75
2022/05/24 03:26:05;;;;;;;3.42;2.03;;;17.40;98.10;;;;;;4991705;28;20030;-76
2022/05/24 03:28:31;;;;;;;4.32;2.10;;;17.60;97.70;;;;;;4991855;28;20022;-75
2022/05/24 03:30:57;;;;;;;4.40;1.83;;;17.50;97.70;;;;;;4991742;28;20040;-75
2022/05/24 03:33:22;;;;;;;5.10;1.98;;;17.50;98.00;;;;;;4991866;28;20109;-76
2022/05/24 03:35:48;;;;;;;6.20;2.03;;;17.60;97.80;;;;;;4992319;28;20037;-76
2022/05/24 03:38:14;;;;;;;3.50;1.95;;;17.70;97.90;;;;;;4991856;28;20392;-76
2022/05/24 03:40:40;;;;;;;5.65;2.30;;;17.70;98.10;;;;;;4992138;28;20080;-75
2022/05/24 03:43:14;;;;;;;4.28;2.00;;;17.60;98.80;;;;;;4991850;28;20034;-75
2022/05/24 03:45:41;;;;;;;2.35;1.75;;;17.60;99.30;;;;;;4992022;28;20424;-76
2022/05/24 03:48:07;;;;;;;4.93;2.28;;;17.70;99.70;;;;;;4991364;28;20062;-76
2022/05/24 03:50:33;;;;;;;3.95;2.08;;;17.60;99.90;;;;;;4991606;28;20039;-75
2022/05/24 03:52:59;;;;;;;5.47;2.08;;;17.70;99.90;;;;;;4992168;28;20041;-72
2022/05/24 03:55:25;;;;;;;8.98;2.33;;;17.70;99.90;;;;;;4992332;28;20124;-68
2022/05/24 03:58:02;;;;;;;5.35;2.20;;;17.80;99.70;;;;;;4991835;28;20019;-66
2022/05/24 04:00:34;;;;;;;3.90;1.88;;;17.80;98.60;;;;;;4992327;28;20421;-64
2022/05/24 04:03:01;;;;;;;21.85;3.53;;;17.90;99.00;;;;;;4993746;28;20403;-65
2022/05/24 04:05:27;;;;;;;9.38;2.83;;;17.90;99.50;;;;;;4995575;28;20456;-63
2022/05/24 04:07:53;;;;;;;4.45;1.95;;;18.00;98.50;;;;;;4994764;28;20036;-74
2022/05/24 04:10:20;;;;;;;7.82;2.30;;;18.10;98.40;;;;;;4995825;28;20439;-64
2022/05/24 04:12:46;;;;;;;6.00;2.15;;;18.00;99.00;;;;;;4995149;28;20064;-64
2022/05/24 04:15:13;;;;;;;4.85;1.98;;;18.20;97.80;;;;;;4994873;28;20358;-70
2022/05/24 04:17:39;;;;;;;3.65;2.03;;;18.30;98.20;;;;;;4994360;28;20030;-74
2022/05/24 04:20:06;;;;;;;6.68;2.63;;;18.30;98.30;;;;;;4994780;28;20366;-64
2022/05/24 04:22:32;;;;;;;5.93;2.65;;;18.60;98.50;;;;;;4994498;28;20092;-75
2022/05/24 04:24:59;;;;;;;5.85;2.40;;;18.90;96.50;;;;;;4995147;28;20104;-64
2022/05/24 04:27:25;;;;;;;6.95;2.83;;;18.80;95.30;;;;;;4994060;28;20117;-66
2022/05/24 04:29:53;;;;;;;6.80;2.40;;;18.90;96.60;;;;;;4994896;28;20049;-67
2022/05/24 04:32:21;;;;;;;6.43;2.45;;;19.70;96.70;;;;;;4995467;28;20065;-73
2022/05/24 04:34:47;;;;;;;3.13;2.05;;;20.40;94.60;;;;;;4995260;28;20042;-64
2022/05/24 04:37:13;;;;;;;5.63;3.60;;;20.50;92.40;;;;;;4994760;28;20090;-63
2022/05/24 04:39:39;;;;;;;3.22;2.28;;;20.80;91.20;;;;;;4994857;28;20113;-63
2022/05/24 04:42:24;;;;;;;3.80;2.40;;;21.60;91.40;;;;;;4994980;28;20026;-73
2022/05/24 04:45:01;;;;;;;5.93;2.47;;;21.90;90.70;;;;;;4994355;28;20590;-74
2022/05/24 04:47:30;;;;;;;5.88;2.83;;;22.00;89.50;;;;;;4994385;28;20614;-75
2022/05/24 04:50:00;;;;;;;6.93;2.60;;;22.80;86.20;;;;;;4994989;28;20037;-74
2022/05/24 04:52:29;;;;;;;3.70;2.40;;;23.30;80.50;;;;;;4994497;28;20066;-73
2022/05/24 04:54:55;;;;;;;7.07;2.75;;;23.10;76.70;;;;;;4995189;28;20416;-74
2022/05/24 04:57:22;;;;;;;7.65;2.63;;;23.00;76.10;;;;;;4995030;28;20149;-73
2022/05/24 04:59:48;;;;;;;7.68;2.90;;;23.00;77.70;;;;;;4994787;28;20018;-74
2022/05/24 05:02:15;;;;;;;10.80;2.67;;;22.70;77.00;;;;;;4973883;28;20045;-73
2022/05/24 05:04:40;;;;;;;7.00;3.00;;;22.80;76.90;;;;;;4974781;28;20071;-73
2022/05/24 05:07:07;;;;;;;9.25;3.28;;;22.80;77.20;;;;;;4975112;28;20442;-74
2022/05/24 05:09:38;;;;;;;5.90;2.80;;;23.10;77.30;;;;;;4975216;28;20031;-71
2022/05/24 05:12:07;;;;;;;7.82;3.80;;;23.50;77.00;;;;;;4988385;28;20105;-70
2022/05/24 05:14:33;;;;;;;8.85;3.70;;;23.50;73.30;;;;;;4993842;28;20045;-71
2022/05/24 05:17:01;;;;;;;5.30;3.22;;;23.60;72.40;;;;;;4994730;28;20388;-74
2022/05/24 05:19:28;;;;;;;8.80;3.53;;;23.50;71.80;;;;;;4994330;28;20061;-72
2022/05/24 05:21:55;;;;;;;7.47;3.63;;;23.30;71.80;;;;;;4993992;28;20069;-72
2022/05/24 05:24:21;;;;;;;10.77;4.07;;;23.40;71.00;;;;;;4993233;28;20030;-73
2022/05/24 05:26:46;;;;;;;9.80;4.55;;;23.50;71.50;;;;;;4993425;28;20113;-74
2022/05/24 05:29:12;;;;;;;14.23;3.75;;;23.80;71.00;;;;;;4993393;28;20134;-74
2022/05/24 05:31:38;;;;;;;11.93;4.40;;;24.10;71.90;;;;;;4976345;28;20026;-75
2022/05/24 05:34:04;;;;;;;8.80;3.58;;;24.50;70.80;;;;;;4993989;28;20527;-74
2022/05/24 05:36:32;;;;;;;4.53;2.75;;;24.60;70.40;;;;;;4992814;28;20025;-74
2022/05/24 05:38:58;;;;;;;8.40;3.78;;;24.80;70.00;;;;;;4993715;28;20026;-65
2022/05/24 05:41:28;;;;;;;20.27;3.78;;;25.00;69.60;;;;;;4993339;28;20117;-73
2022/05/24 05:43:54;;;;;;;7.63;3.15;;;25.10;68.70;;;;;;4993799;28;20078;-72
2022/05/24 05:46:21;;;;;;;6.75;3.53;;;25.00;69.00;;;;;;4993038;28;20591;-75
2022/05/24 05:48:48;;;;;;;7.20;3.33;;;24.90;70.40;;;;;;4993890;28;20125;-75
2022/05/24 05:51:18;;;;;;;11.77;3.60;;;25.00;69.30;;;;;;4993612;28;20105;-73
2022/05/24 05:53:45;;;;;;;6.93;2.75;;;25.10;69.20;;;;;;4993195;28;20042;-74
2022/05/24 05:56:17;;;;;;;7.32;3.13;;;24.90;69.10;;;;;;4993331;28;20022;-74
2022/05/24 05:58:43;;;;;;;8.43;3.60;;;25.00;71.20;;;;;;4993540;28;20092;-72
2022/05/24 06:01:29;;;;;;;9.38;3.67;;;24.50;70.80;;;;;;4993399;28;20032;-75
2022/05/24 06:03:59;;;;;;;8.40;3.60;;;24.50;72.10;;;;;;4992845;28;20053;-75
2022/05/24 06:06:28;;;;;;;10.63;3.38;;;24.40;71.70;;;;;;4993546;28;20022;-75
2022/05/24 06:08:54;;;;;;;6.05;3.17;;;24.50;72.70;;;;;;4993392;28;20057;-75
2022/05/24 06:11:21;;;;;;;10.40;4.13;;;24.50;73.90;;;;;;4992981;28;20026;-74
2022/05/24 06:13:48;;;;;;;4.78;2.97;;;24.60;72.70;;;;;;4993288;28;20030;-74
2022/05/24 06:16:14;;;;;;;7.75;3.60;;;24.60;71.80;;;;;;4993160;28;20476;-75
2022/05/24 06:18:40;;;;;;;9.07;3.40;;;24.50;75.40;;;;;;4992974;28;20037;-75
2022/05/24 06:21:06;;;;;;;9.70;3.88;;;24.30;73.40;;;;;;4992944;28;20030;-74
2022/05/24 06:23:34;;;;;;;9.18;3.55;;;24.70;72.80;;;;;;4993182;28;20038;-75
2022/05/24 06:26:00;;;;;;;17.90;3.90;;;24.50;74.10;;;;;;4992725;28;20037;-74
2022/05/24 06:28:28;;;;;;;17.45;4.22;;;23.90;76.20;;;;;;4993035;28;20034;-75
2022/05/24 06:30:54;;;;;;;11.70;5.03;;;23.30;78.80;;;;;;4993115;28;20480;-74
2022/05/24 06:33:20;;;;;;;13.32;3.97;;;23.60;78.30;;;;;;4992613;28;20036;-73
2022/05/24 06:35:46;;;;;;;14.15;4.40;;;23.70;78.60;;;;;;4992223;28;20026;-74
2022/05/24 06:38:12;;;;;;;15.65;4.43;;;23.30;77.90;;;;;;4992077;28;20520;-74
2022/05/24 06:40:38;;;;;;;13.32;4.20;;;23.50;76.00;;;;;;4992657;28;20034;-74
2022/05/24 06:43:04;;;;;;;10.85;4.40;;;23.70;76.50;;;;;;4991935;28;20042;-73
2022/05/24 06:45:32;;;;;;;12.05;4.30;;;23.60;76.80;;;;;;4975547;28;20034;-75
2022/05/24 06:47:58;;;;;;;8.88;3.97;;;23.80;76.00;;;;;;4992118;28;20057;-74
2022/05/24 06:50:24;;;;;;;11.18;4.75;;;23.90;75.30;;;;;;4992971;28;20034;-74
2022/05/24 06:52:56;;;;;;;6.45;3.83;;;24.00;74.50;;;;;;4992779;28;20042;-74
2022/05/24 06:55:23;;;;;;;14.00;4.45;;;24.20;74.60;;;;;;4992655;28;20042;-74
2022/05/24 06:57:50;;;;;;;5.95;3.60;;;24.00;73.10;;;;;;4992389;28;20014;-73
2022/05/24 07:03:03;;;;;;;14.63;4.57;;;24.90;74.00;;;;;;4991837;28;20035;-73
2022/05/24 07:05:30;;;;;;;12.23;4.13;;;24.50;73.70;;;;;;4991951;28;20026;-74
2022/05/24 07:07:58;;;;;;;6.90;4.00;;;24.70;74.80;;;;;;4992212;28;20115;-74
2022/05/24 07:10:24;;;;;;;8.68;3.17;;;25.00;76.40;;;;;;4991846;28;20030;-70
2022/05/24 07:13:02;;;;;;;15.07;4.75;;;25.40;75.30;;;;;;4991721;28;20035;-75
2022/05/24 07:15:29;;;;;;;9.40;4.43;;;26.00;76.50;;;;;;4992048;28;20037;-74
2022/05/24 07:17:55;;;;;;;8.95;4.50;;;26.20;74.60;;;;;;4992182;28;20066;-74
2022/05/24 07:20:22;;;;;;;17.95;5.28;;;26.50;74.80;;;;;;4991608;28;20033;-75
2022/05/24 07:22:48;;;;;;;13.02;4.95;;;26.70;72.90;;;;;;4991717;28;20404;-75
2022/05/24 07:25:16;;;;;;;14.93;5.03;;;26.10;73.10;;;;;;4991997;28;20038;-75
2022/05/24 07:27:42;;;;;;;10.75;4.68;;;26.70;74.80;;;;;;4991895;28;20054;-75
2022/05/24 07:30:08;;;;;;;14.40;4.75;;;27.10;73.70;;;;;;4991473;28;20073;-75
2022/05/24 07:32:34;;;;;;;7.95;3.85;;;27.00;71.50;;;;;;4991307;28;20034;-75
2022/05/24 07:35:01;;;;;;;10.07;4.50;;;27.00;71.90;;;;;;4992604;28;20033;-75
2022/05/24 07:37:27;;;;;;;8.30;4.15;;;26.80;71.30;;;;;;4992459;28;20038;-75
2022/05/24 07:45:48;;;;;;;13.18;4.75;;;27.20;71.60;;;;;;4996255;28;20037;-76
2022/05/24 07:48:09;;;;;;;8.65;4.70;;;26.50;73.40;;;;;;4995536;28;20062;-75
2022/05/24 07:50:35;;;;;;;8.43;3.83;;;26.20;74.20;;;;;;4994946;28;20465;-74
2022/05/24 07:53:01;;;;;;;7.75;4.03;;;25.40;76.90;;;;;;4995491;28;20026;-75
2022/05/24 07:55:27;;;;;;;6.43;4.07;;;26.10;79.20;;;;;;4995137;28;20539;-74
2022/05/24 07:57:53;;;;;;;9.32;4.22;;;25.40;77.80;;;;;;4993903;28;20143;-75
2022/05/24 08:00:20;;;;;;;9.38;4.80;;;26.00;78.70;;;;;;4994888;28;20109;-75
2022/05/24 08:02:49;;;;;;;18.25;11.32;;;25.80;77.60;;;;;;4995187;28;20041;-75
2022/05/24 08:05:15;;;;;;;14.00;4.07;;;25.80;78.40;;;;;;4995682;28;20031;-74
2022/05/24 08:07:41;;;;;;;8.95;3.92;;;26.60;78.70;;;;;;4995800;28;20029;-74
2022/05/24 08:10:08;;;;;;;5.68;3.90;;;27.00;79.30;;;;;;4995444;28;20022;-74
2022/05/24 08:12:34;;;;;;;8.57;3.53;;;27.50;79.00;;;;;;4994865;28;20076;-74
2022/05/24 08:14:59;;;;;;;7.20;3.90;;;27.70;76.80;;;;;;4994731;28;20486;-74
2022/05/24 08:17:26;;;;;;;8.25;3.72;;;27.90;74.80;;;;;;4995596;28;20420;-75
2022/05/24 08:19:52;;;;;;;9.13;4.07;;;27.80;74.30;;;;;;4994342;28;20054;-75
2022/05/24 08:22:20;;;;;;;7.32;3.53;;;27.50;74.40;;;;;;4993435;28;20030;-74
2022/05/24 08:24:46;;;;;;;7.13;3.78;;;27.50;75.00;;;;;;4993199;28;20034;-75
2022/05/24 08:27:14;;;;;;;11.00;4.05;;;27.50;74.50;;;;;;4992804;28;20049;-76
2022/05/24 08:29:44;;;;;;;8.45;4.38;;;27.80;74.30;;;;;;4994586;28;20088;-75
2022/05/24 08:32:11;;;;;;;9.30;4.25;;;27.30;74.60;;;;;;4994722;28;20041;-75
2022/05/24 08:34:38;;;;;;;9.32;3.88;;;27.70;74.70;;;;;;4995086;28;20101;-75
2022/05/24 08:37:05;;;;;;;8.40;4.68;;;27.90;76.00;;;;;;4994869;28;20481;-76
2022/05/24 08:39:31;;;;;;;15.95;5.20;;;27.60;74.80;;;;;;4994844;28;20089;-75
2022/05/24 08:42:07;;;;;;;8.90;4.82;;;27.50;74.50;;;;;;4994573;28;20465;-75
2022/05/24 08:50:20;;;;;;;8.77;4.45;;;27.30;75.40;;;;;;4994496;28;20049;-73
2022/05/24 08:53:03;;;;;;;6.93;4.68;;;27.60;74.30;;;;;;4994402;28;20555;-76
2022/05/24 08:55:30;;;;;;;14.00;5.30;;;27.90;75.70;;;;;;4994465;28;20116;-74
2022/05/24 08:57:58;;;;;;;9.10;4.82;;;27.80;74.90;;;;;;4993318;28;20129;-76
2022/05/24 09:00:53;;;;;;;11.65;4.90;;;28.00;74.10;;;;;;4993491;28;20030;-74
2022/05/24 09:03:24;;;;;;;11.93;5.55;;;28.30;75.40;;;;;;4933899;28;20039;-76
2022/05/24 09:05:57;;;;;;;8.57;5.05;;;28.10;74.50;;;;;;4934069;29;20028;-74
2022/05/24 09:08:27;;;;;;;9.23;4.50;;;28.10;74.30;;;;;;4933884;29;20040;-76
2022/05/24 09:10:59;;;;;;;7.75;5.15;;;28.10;75.80;;;;;;4933502;29;20105;-75
2022/05/24 09:13:37;;;;;;;7.22;4.82;;;28.40;74.70;;;;;;4932748;29;20075;-75
2022/05/24 09:16:12;;;;;;;9.90;4.97;;;28.10;75.20;;;;;;4933560;29;20072;-75
2022/05/24 09:19:09;;;;;;;10.40;5.55;;;28.40;74.30;;;;;;4931400;29;20732;-73
2022/05/24 09:21:37;;;;;;;11.90;5.28;;;28.00;74.40;;;;;;4931628;29;20039;-75
2022/05/24 09:24:28;;;;;;;7.25;5.20;;;28.40;74.90;;;;;;4932748;29;20103;-75
2022/05/24 09:27:04;;;;;;;7.18;4.40;;;28.00;75.20;;;;;;4932751;29;20040;-75
2022/05/24 09:29:35;;;;;;;13.00;4.82;;;28.10;74.80;;;;;;4931582;29;20526;-75
2022/05/24 09:32:08;;;;;;;17.40;5.03;;;28.60;75.10;;;;;;4932505;29;20038;-75
2022/05/24 09:34:37;;;;;;;9.75;4.78;;;28.50;74.30;;;;;;4932710;29;20047;-75
2022/05/24 09:37:14;;;;;;;8.65;5.05;;;28.40;75.00;;;;;;4933455;29;20040;-76
2022/05/24 09:39:57;;;;;;;10.13;4.60;;;27.70;76.00;;;;;;4953223;28;20042;-75
2022/05/24 09:42:31;;;;;;;7.13;4.43;;;28.30;77.40;;;;;;4974342;28;20050;-75
2022/05/24 09:45:08;;;;;;;7.55;4.55;;;28.60;76.00;;;;;;4989121;28;20637;-76
2022/05/24 09:47:43;;;;;;;10.20;4.68;;;28.50;76.10;;;;;;4990710;28;20049;-74
2022/05/24 09:50:18;;;;;;;7.05;4.20;;;28.30;75.00;;;;;;4993142;28;20109;-74
2022/05/24 09:53:08;;;;;;;8.98;4.68;;;28.40;76.90;;;;;;5010855;28;20026;-74
2022/05/24 09:55:48;;;;;;;10.32;5.50;;;28.30;75.40;;;;;;4993507;28;20046;-72
2022/05/24 09:58:29;;;;;;;8.73;5.00;;;28.70;76.90;;;;;;4993341;28;20046;-74
2022/05/24 10:01:08;;;;;;;8.07;4.93;;;29.20;79.00;;;;;;4997234;28;20061;-75
2022/05/24 10:03:49;;;;;;;8.80;5.30;;;29.60;77.50;;;;;;4992080;28;20068;-74
2022/05/24 10:06:25;;;;;;;11.23;4.90;;;29.90;75.70;;;;;;4974929;28;20030;-76
2022/05/24 10:09:02;;;;;;;7.75;4.50;;;30.20;76.10;;;;;;4972453;28;20030;-75
2022/05/24 10:11:36;;;;;;;7.30;4.75;;;30.40;73.30;;;;;;4971683;28;20027;-76
2022/05/24 10:14:39;;;;;;;8.35;4.95;;;29.50;72.30;;;;;;4971872;28;20031;-73
2022/05/24 10:17:55;;;;;;;9.52;4.97;;;29.50;72.90;;;;;;4972100;28;20023;-76
2022/05/24 10:20:56;;;;;;;9.65;5.43;;;28.70;72.80;;;;;;4931078;29;20044;-75
2022/05/24 10:23:32;;;;;;;7.03;4.82;;;28.60;73.00;;;;;;4931004;29;20540;-74
2022/05/24 10:26:27;;;;;;;14.18;5.82;;;29.30;74.80;;;;;;4930543;29;20035;-71
2022/05/24 10:29:32;;;;;;;9.95;5.28;;;29.10;73.80;;;;;;4931807;29;20039;-75
2022/05/24 10:32:05;;;;;;;8.05;4.50;;;29.40;74.10;;;;;;4931120;29;20051;-73
2022/05/24 10:41:00;;;;;;;9.05;5.50;;;29.30;73.40;;;;;;4889895;29;20040;-72
2022/05/24 10:44:11;;;;;;;8.18;4.90;;;29.40;74.20;;;;;;4896777;29;20487;-74
2022/05/24 10:46:54;;;;;;;9.20;5.30;;;29.80;73.40;;;;;;4902257;29;20499;-67
2022/05/24 10:49:39;;;;;;;14.70;5.45;;;29.60;72.50;;;;;;4914279;29;20038;-74
2022/05/24 10:52:28;;;;;;;8.88;5.07;;;29.80;74.10;;;;;;4949569;28;20054;-73
2022/05/24 10:55:17;;;;;;;11.85;5.30;;;29.80;72.70;;;;;;4951410;29;20105;-74
2022/05/24 10:57:58;;;;;;;7.63;5.10;;;30.10;73.40;;;;;;4955649;28;20101;-74
2022/05/24 11:00:41;;;;;;;9.90;5.57;;;30.10;73.20;;;;;;4952705;28;20054;-74
2022/05/24 11:03:10;;;;;;;11.63;5.65;;;29.80;71.30;;;;;;4954748;28;20041;-72
2022/05/24 11:05:42;;;;;;;8.63;5.80;;;29.70;72.10;;;;;;4969564;28;20525;-74
2022/05/24 11:08:49;;;;;;;7.05;4.75;;;29.70;73.10;;;;;;4966281;28;20039;-73
2022/05/24 11:11:53;;;;;;;8.50;4.63;;;29.80;72.80;;;;;;4948163;28;20110;-72
2022/05/24 11:14:28;;;;;;;13.90;5.97;;;29.90;72.40;;;;;;4953980;28;20487;-72
2022/05/24 11:16:55;;;;;;;9.73;5.63;;;29.80;72.20;;;;;;4982862;28;20129;-71
2022/05/24 11:19:24;;;;;;;6.57;4.88;;;30.00;71.10;;;;;;5010936;28;20034;-73
2022/05/24 11:22:08;;;;;;;11.25;5.32;;;30.20;72.20;;;;;;5008350;28;20022;-73
2022/05/24 11:25:19;;;;;;;8.85;4.70;;;29.90;71.00;;;;;;5014776;28;20080;-74
2022/05/24 11:27:57;;;;;;;9.75;4.40;;;30.00;70.70;;;;;;4953572;28;20073;-67
2022/05/24 11:30:36;;;;;;;11.88;5.15;;;30.00;69.30;;;;;;4953337;29;20031;-75
2022/05/24 11:33:07;;;;;;;11.55;5.22;;;30.10;70.90;;;;;;4954288;28;20043;-73
2022/05/24 11:35:44;;;;;;;8.13;5.07;;;30.40;68.80;;;;;;4952427;28;20031;-74
2022/05/24 11:38:22;;;;;;;9.75;4.47;;;30.60;68.80;;;;;;4953908;28;20206;-73
2022/05/24 11:40:54;;;;;;;8.40;5.13;;;30.50;67.40;;;;;;4954929;28;20518;-74
2022/05/24 11:43:35;;;;;;;9.30;4.38;;;30.60;67.40;;;;;;4954315;28;20067;-74
2022/05/24 11:46:06;;;;;;;8.57;4.65;;;30.70;67.80;;;;;;4953721;29;20490;-66
2022/05/24 11:48:47;;;;;;;12.50;5.03;;;30.80;67.20;;;;;;4954012;28;20410;-73
2022/05/24 11:51:45;;;;;;;9.30;4.90;;;30.80;66.60;;;;;;4954284;29;20092;-73
2022/05/24 11:54:23;;;;;;;9.90;4.82;;;30.70;66.40;;;;;;4953085;28;20391;-64
2022/05/24 11:57:01;;;;;;;8.93;4.88;;;30.60;66.00;;;;;;4953591;28;20031;-73
2022/05/24 11:59:48;;;;;;;9.13;4.60;;;30.50;67.30;;;;;;5009713;28;20057;-74
2022/05/24 12:02:24;;;;;;;8.23;4.65;;;30.50;67.30;;;;;;5013351;28;20383;-73
2022/05/24 12:08:01;;;;;;;9.85;4.53;;;30.00;66.10;;;;;;5029116;28;20045;-72
2022/05/24 12:10:36;;;;;;;10.20;5.00;;;30.10;65.30;;;;;;5034574;28;20141;-72
2022/05/24 12:13:02;;;;;;;13.93;4.55;;;30.20;65.70;;;;;;5033425;28;20049;-71
2022/05/24 12:15:31;;;;;;;9.15;4.63;;;30.40;66.20;;;;;;5014977;28;20028;-72
2022/05/24 12:17:59;;;;;;;10.52;5.20;;;30.50;65.50;;;;;;5014516;28;20032;-71
2022/05/24 12:20:25;;;;;;;13.35;5.07;;;30.60;64.90;;;;;;5019769;28;20045;-67
2022/05/24 12:23:06;;;;;;;9.13;5.50;;;30.40;65.20;;;;;;5013531;28;20026;-72
2022/05/24 12:26:02;;;;;;;10.27;4.85;;;30.40;65.90;;;;;;5010573;28;20158;-67
2022/05/24 12:28:48;;;;;;;13.68;5.00;;;30.30;65.80;;;;;;5027204;28;20041;-71
2022/05/24 12:31:17;;;;;;;11.20;4.82;;;30.20;66.00;;;;;;5034255;28;20022;-73
2022/05/24 12:33:48;;;;;;;11.60;5.32;;;30.20;65.60;;;;;;5034236;28;20025;-72
2022/05/24 12:36:39;;;;;;;10.70;5.10;;;30.20;66.40;;;;;;5034331;28;20375;-70
2022/05/24 12:39:08;;;;;;;11.80;5.00;;;30.00;65.70;;;;;;5030651;28;20434;-72
2022/05/24 12:41:43;;;;;;;11.65;5.82;;;29.70;66.00;;;;;;5014271;28;20503;-73
2022/05/24 12:44:14;;;;;;;7.93;4.60;;;29.80;66.80;;;;;;5014435;28;20549;-64
2022/05/24 12:46:42;;;;;;;;;;;30.00;66.60;;;;;;5014790;28;20050;-74
2022/05/24 12:49:15;;;;;;;8.65;4.78;;;30.10;66.30;;;;;;5014386;28;20371;-73
2022/05/24 12:51:41;;;;;;;12.50;5.60;;;30.30;66.40;;;;;;5006026;28;20545;-70
2022/05/24 12:54:16;;;;;;;9.13;5.30;;;30.40;66.30;;;;;;4981722;28;20037;-71
2022/05/24 12:57:06;;;;;;;10.02;4.78;;;30.50;66.50;;;;;;5009868;28;20044;-73
2022/05/24 12:59:40;;;;;;;9.40;5.15;;;30.60;65.40;;;;;;5014458;28;20030;-72
2022/05/24 13:02:39;;;;;;;18.42;5.57;;;30.40;65.00;;;;;;5013937;28;20099;-68
2022/05/24 13:05:09;;;;;;;11.13;5.60;;;30.70;65.80;;;;;;5013505;28;20038;-74
2022/05/24 13:07:42;;;;;;;9.38;4.95;;;30.90;66.40;;;;;;4981923;28;20031;-72
2022/05/24 13:10:35;;;;;;;9.45;4.90;;;30.40;64.60;;;;;;4995712;28;20490;-73
2022/05/24 13:13:09;;;;;;;8.93;4.75;;;30.70;66.20;;;;;;4977126;28;20045;-73
2022/05/24 13:15:45;;;;;;;8.98;4.97;;;30.80;66.30;;;;;;4977807;28;20436;-70
2022/05/24 13:18:20;;;;;;;10.43;4.80;;;31.00;66.40;;;;;;4994424;28;20077;-73
2022/05/24 13:20:52;;;;;;;10.95;4.88;;;31.10;66.00;;;;;;4974497;28;20031;-74
2022/05/24 13:23:36;;;;;;;8.23;4.57;;;30.90;65.30;;;;;;4974359;28;20027;-73
2022/05/24 13:26:02;;;;;;;10.18;4.88;;;30.70;66.50;;;;;;4982849;28;20041;-73
2022/05/24 13:28:42;;;;;;;7.15;4.47;;;30.50;66.30;;;;;;5004985;28;20018;-74
2022/05/24 13:34:31;;;;;;;7.40;4.72;;;30.60;67.80;;;;;;4942189;28;20035;-70
2022/05/24 13:37:11;;;;;;;13.65;4.85;;;30.40;66.70;;;;;;4952202;29;20536;-70
2022/05/24 13:39:39;;;;;;;8.52;4.63;;;30.30;68.30;;;;;;4950854;28;20035;-71
2022/05/24 13:42:26;;;;;;;10.10;4.72;;;30.30;66.80;;;;;;4952302;29;20109;-69
2022/05/24 13:45:04;;;;;;;8.00;4.97;;;30.40;68.50;;;;;;4950477;28;20047;-72
2022/05/24 13:47:40;;;;;;;9.77;5.05;;;30.30;68.30;;;;;;4950539;28;20047;-73